createdAt,value
2023-05-29T00:01:08.464Z,10.38
2023-05-29T00:03:37.300Z,9.20
2023-05-29T00:06:21.413Z,10.30
2023-05-29T00:11:35.097Z,9.82
2023-05-29T00:14:04.313Z,10.27
2023-05-29T00:16:39.745Z,10.55
2023-05-29T00:19:08.851Z,10.55
2023-05-29T00:21:37.041Z,11.15
2023-05-29T00:24:05.348Z,10.23
2023-05-29T00:26:40.177Z,10.02
2023-05-29T00:29:08.494Z,10.95
2023-05-29T00:31:39.868Z,10.15
2023-05-29T00:37:13.494Z,10.48
2023-05-29T00:40:01.820Z,9.77
2023-05-29T00:42:30.116Z,10.50
2023-05-29T00:44:58.361Z,10.38
2023-05-29T00:53:33.425Z,10.85
2023-05-29T01:04:20.924Z,10.73
2023-05-29T01:09:38.161Z,10.35
2023-05-29T01:12:34.444Z,11.18
2023-05-29T01:19:09.631Z,11.07
2023-05-29T01:22:10.347Z,12.18
2023-05-29T01:24:55.907Z,11.15
2023-05-29T01:27:33.697Z,11.98
2023-05-29T01:43:22.480Z,13.27
2023-05-29T01:57:35.182Z,14.05
2023-05-29T02:00:38.445Z,14.15
2023-05-29T02:03:35.069Z,13.32
2023-05-29T02:06:06.111Z,15.47
2023-05-29T02:08:47.529Z,15.05
2023-05-29T02:11:15.533Z,15.05
2023-05-29T02:13:44.246Z,17.65
2023-05-29T02:16:12.505Z,19.65
2023-05-29T02:18:42.536Z,18.92
2023-05-29T02:21:17.772Z,18.67
2023-05-29T02:26:28.246Z,20.50
2023-05-29T02:35:57.763Z,20.08
2023-05-29T02:38:25.660Z,19.52
2023-05-29T02:40:53.887Z,17.75
2023-05-29T02:46:17.480Z,16.05
2023-05-29T02:55:14.115Z,14.85
2023-05-29T02:57:42.957Z,13.10
2023-05-29T03:02:59.928Z,8.95
2023-05-29T03:05:34.094Z,9.13
2023-05-29T03:08:02.105Z,8.45
2023-05-29T03:10:37.120Z,7.97
2023-05-29T03:13:05.174Z,7.88
2023-05-29T03:15:35.950Z,8.20
2023-05-29T03:18:03.987Z,7.45
2023-05-29T03:20:32.414Z,7.63
2023-05-29T03:23:02.133Z,6.97
2023-05-29T03:25:37.275Z,7.00
2023-05-29T03:28:05.247Z,6.50
2023-05-29T03:30:50.003Z,6.32
2023-05-29T03:33:20.849Z,6.07
2023-05-29T03:36:01.775Z,6.40
2023-05-29T03:38:29.983Z,6.82
2023-05-29T03:41:00.911Z,6.75
2023-05-29T03:43:29.197Z,6.70
2023-05-29T03:45:57.185Z,6.50
2023-05-29T03:48:26.248Z,6.45
2023-05-29T03:53:40.004Z,4.40
2023-05-29T03:59:17.165Z,5.63
2023-05-29T04:08:11.530Z,5.50
2023-05-29T04:10:48.107Z,5.20
2023-05-29T04:13:16.063Z,5.47
2023-05-29T04:15:43.997Z,4.95
2023-05-29T04:18:12.128Z,4.68
2023-05-29T04:20:40.277Z,4.53
2023-05-29T04:23:09.338Z,5.13
2023-05-29T04:25:55.609Z,4.95
2023-05-29T04:28:39.965Z,4.60
2023-05-29T04:33:51.194Z,4.78
2023-05-29T04:39:08.895Z,4.85
2023-05-29T04:44:36.860Z,5.57
2023-05-29T04:47:07.942Z,4.85
2023-05-29T04:49:36.574Z,4.43
2023-05-29T04:54:49.229Z,5.05
2023-05-29T05:00:07.800Z,5.40
2023-05-29T05:02:38.231Z,4.47
2023-05-29T05:05:06.529Z,4.68
2023-05-29T05:07:34.476Z,4.47
2023-05-29T05:10:03.591Z,6.13
2023-05-29T05:12:33.191Z,5.93
2023-05-29T05:15:02.969Z,4.50
2023-05-29T05:17:32.034Z,4.38
2023-05-29T05:22:44.034Z,4.05
2023-05-29T05:25:12.884Z,4.45
2023-05-29T05:27:41.003Z,4.22
2023-05-29T05:30:09.602Z,4.78
2023-05-29T05:35:20.758Z,4.50
2023-05-29T05:37:48.975Z,4.47
2023-05-29T05:40:17.379Z,4.40
2023-05-29T05:48:36.169Z,4.63
2023-05-29T05:53:58.198Z,4.70
2023-05-29T05:56:27.798Z,4.60
2023-05-29T05:58:56.022Z,4.03
2023-05-29T06:01:23.993Z,4.85
2023-05-29T06:03:52.622Z,4.55
2023-05-29T06:06:20.938Z,5.13
2023-05-29T06:08:50.477Z,5.25
2023-05-29T06:11:18.803Z,5.80
2023-05-29T06:13:47.843Z,5.05
2023-05-29T06:16:24.042Z,5.50
2023-05-29T06:18:53.356Z,5.30
2023-05-29T06:21:21.820Z,6.35
2023-05-29T06:23:54.209Z,6.68
2023-05-29T06:26:26.492Z,6.90
2023-05-29T06:28:56.060Z,7.00
2023-05-29T06:31:31.626Z,7.78
2023-05-29T06:51:27.558Z,12.35
2023-05-29T06:53:58.190Z,13.68
2023-05-29T06:59:12.874Z,15.50
2023-05-29T07:02:00.349Z,17.13
2023-05-29T07:04:29.656Z,17.67
2023-05-29T07:06:58.286Z,19.27
2023-05-29T07:09:32.849Z,18.30
2023-05-29T07:12:00.878Z,17.27
2023-05-29T07:14:35.484Z,18.27
2023-05-29T07:17:04.330Z,18.90
2023-05-29T07:19:40.043Z,18.77
2023-05-29T07:22:07.915Z,19.70
2023-05-29T07:24:42.896Z,18.73
2023-05-29T07:27:10.992Z,18.95
2023-05-29T07:29:45.918Z,17.55
2023-05-29T07:32:13.930Z,18.35
2023-05-29T07:34:51.418Z,17.60
2023-05-29T07:37:20.449Z,16.35
2023-05-29T07:39:48.837Z,17.27
2023-05-29T07:42:36.938Z,17.08
2023-05-29T07:45:05.737Z,15.75
2023-05-29T07:47:34.168Z,15.90
2023-05-29T07:50:10.933Z,17.13
2023-05-29T07:52:38.928Z,19.08
2023-05-29T07:55:15.032Z,19.42
2023-05-29T07:57:43.671Z,17.80
2023-05-29T08:00:15.066Z,16.60
2023-05-29T08:02:49.018Z,17.95
2023-05-29T08:05:33.247Z,17.70
2023-05-29T08:08:04.134Z,17.33
2023-05-29T08:10:33.639Z,18.00
2023-05-29T08:13:07.810Z,15.25
2023-05-29T08:15:37.541Z,15.50
2023-05-29T08:18:11.871Z,15.00
2023-05-29T08:20:40.256Z,16.40
2023-05-29T08:23:08.195Z,14.63
2023-05-29T08:25:36.094Z,14.27
2023-05-29T08:28:03.964Z,11.52
2023-05-29T08:30:32.321Z,13.48
2023-05-29T08:33:06.933Z,13.70
2023-05-29T08:35:35.367Z,12.25
2023-05-29T08:38:09.842Z,13.57
2023-05-29T08:40:38.478Z,12.20
2023-05-29T08:43:21.414Z,13.02
2023-05-29T09:26:36.568Z,4.78
2023-05-29T09:29:04.806Z,4.60
2023-05-29T09:34:20.257Z,4.32
2023-05-29T09:36:48.133Z,4.00
2023-05-29T09:39:22.922Z,4.47
2023-05-29T09:41:51.063Z,4.78
2023-05-29T09:44:29.763Z,5.10
2023-05-29T09:47:00.921Z,5.72
2023-05-29T09:49:32.768Z,5.45
2023-05-29T09:52:01.836Z,5.07
2023-05-29T09:54:34.046Z,4.20
2023-05-29T09:57:05.448Z,4.07
2023-05-29T09:59:34.772Z,4.15
2023-05-29T10:02:05.639Z,3.83
2023-05-29T10:04:36.674Z,4.05
2023-05-29T10:07:29.772Z,3.60
2023-05-29T10:10:10.621Z,3.50
2023-05-29T10:12:43.567Z,3.30
2023-05-29T10:15:17.704Z,3.88
2023-05-29T10:17:58.819Z,3.17
2023-05-29T10:20:29.789Z,3.38
2023-05-29T10:23:00.152Z,3.95
2023-05-29T10:25:31.586Z,4.22
2023-05-29T10:28:01.013Z,3.80
2023-05-29T10:30:44.956Z,3.88
2023-05-29T10:33:43.617Z,4.32
2023-05-29T10:36:14.781Z,5.55
2023-05-29T10:38:45.923Z,4.63
2023-05-29T10:41:29.184Z,3.80
2023-05-29T10:43:58.388Z,4.18
2023-05-29T10:46:47.842Z,4.13
2023-05-29T10:49:22.938Z,3.88
2023-05-29T10:51:52.504Z,5.40
2023-05-29T10:54:25.447Z,4.68
2023-05-29T10:56:56.552Z,4.80
2023-05-29T10:59:28.873Z,5.30
2023-05-29T11:01:58.872Z,4.57
2023-05-29T11:04:33.015Z,5.38
2023-05-29T11:07:02.072Z,7.55
2023-05-29T11:09:32.931Z,8.02
2023-05-29T11:12:47.507Z,8.90
2023-05-29T11:15:17.111Z,7.90
2023-05-29T11:17:46.863Z,7.22
2023-05-29T11:20:38.384Z,7.18
2023-05-29T11:23:10.931Z,7.20
2023-05-29T11:25:39.209Z,6.40
2023-05-29T11:28:12.033Z,8.68
2023-05-29T11:30:50.151Z,8.10
2023-05-29T11:33:28.746Z,7.57
2023-05-29T11:36:01.415Z,7.75
2023-05-29T11:38:30.117Z,8.02
2023-05-29T11:40:59.546Z,8.65
2023-05-29T11:43:34.720Z,7.63
2023-05-29T11:46:03.648Z,8.73
2023-05-29T11:48:31.600Z,7.53
2023-05-29T11:51:02.441Z,7.95
2023-05-29T11:53:32.443Z,6.88
2023-05-29T11:56:13.649Z,6.72
2023-05-29T11:58:42.328Z,5.90
2023-05-29T12:01:10.502Z,6.45
2023-05-29T12:03:42.795Z,5.63
2023-05-29T12:06:14.395Z,5.70
2023-05-29T12:08:42.635Z,6.38
2023-05-29T12:11:10.676Z,6.40
2023-05-29T12:13:38.658Z,7.43
2023-05-29T12:16:08.086Z,8.48
2023-05-29T12:18:36.324Z,7.72
2023-05-29T12:21:08.660Z,7.18
2023-05-29T12:23:40.398Z,7.30
2023-05-29T12:26:08.315Z,6.93
2023-05-29T12:28:36.320Z,7.15
2023-05-29T12:31:04.356Z,7.50
2023-05-29T12:33:33.261Z,7.68
2023-05-29T12:36:09.008Z,7.50
2023-05-29T12:38:53.178Z,7.68
2023-05-29T12:41:24.313Z,7.30
2023-05-29T12:43:56.344Z,7.50
2023-05-29T12:46:28.741Z,6.97
2023-05-29T12:48:57.746Z,6.82
2023-05-29T12:51:29.413Z,5.60
2023-05-29T12:53:58.939Z,6.20
2023-05-29T12:56:27.913Z,6.35
2023-05-29T12:58:56.028Z,6.43
2023-05-29T13:01:25.605Z,6.72
2023-05-29T13:03:53.701Z,6.30
2023-05-29T13:06:21.828Z,6.07
2023-05-29T13:08:49.909Z,6.00
2023-05-29T13:11:17.802Z,5.90
2023-05-29T13:13:46.006Z,6.70
2023-05-29T13:16:13.902Z,6.80
2023-05-29T13:18:41.873Z,6.97
2023-05-29T13:21:09.757Z,6.60
2023-05-29T13:23:37.941Z,7.13
2023-05-29T13:26:06.601Z,6.40
2023-05-29T13:28:35.020Z,6.43
2023-05-29T13:31:02.926Z,6.80
2023-05-29T13:33:31.211Z,6.72
2023-05-29T13:35:59.384Z,6.55
2023-05-29T13:38:28.489Z,6.63
2023-05-29T13:40:56.656Z,6.75
2023-05-29T13:43:32.360Z,7.10
2023-05-29T13:46:07.936Z,7.10
2023-05-29T13:48:35.852Z,7.50
2023-05-29T13:51:03.813Z,6.93
2023-05-29T13:53:31.894Z,6.70
2023-05-29T13:55:59.853Z,6.28
2023-05-29T13:58:27.822Z,6.13
2023-05-29T14:00:55.899Z,6.90
2023-05-29T14:03:26.754Z,5.75
2023-05-29T14:05:55.023Z,6.30
2023-05-29T14:08:23.036Z,6.13
2023-05-29T14:10:52.275Z,6.43
2023-05-29T14:13:20.120Z,6.35
2023-05-29T14:15:50.276Z,7.22
2023-05-29T14:18:18.184Z,6.03
2023-05-29T14:20:49.631Z,6.25
2023-05-29T14:23:21.079Z,6.10
2023-05-29T14:25:49.014Z,5.50
2023-05-29T14:28:16.967Z,5.80
2023-05-29T14:30:45.253Z,5.97
2023-05-29T14:33:13.183Z,6.57
2023-05-29T14:35:41.157Z,5.53
2023-05-29T14:38:09.004Z,5.93
2023-05-29T14:40:37.338Z,5.30
2023-05-29T14:43:05.404Z,5.35
2023-05-29T14:45:33.296Z,5.20
2023-05-29T14:48:02.359Z,5.88
2023-05-29T14:50:30.444Z,5.18
2023-05-29T14:52:58.342Z,5.78
2023-05-29T14:55:26.358Z,6.00
2023-05-29T14:57:54.251Z,5.78
2023-05-29T15:00:22.306Z,5.45
2023-05-29T15:02:50.273Z,5.47
2023-05-29T15:05:20.116Z,5.15
2023-05-29T15:07:48.001Z,5.18
2023-05-29T15:10:18.600Z,5.25
2023-05-29T15:12:46.523Z,4.40
2023-05-29T15:15:14.441Z,5.40
2023-05-29T15:17:42.367Z,5.80
2023-05-29T15:20:10.928Z,5.25
2023-05-29T15:22:38.922Z,6.00
2023-05-29T15:25:07.043Z,5.55
2023-05-29T15:27:35.413Z,5.75
2023-05-29T15:30:29.647Z,5.82
2023-05-29T15:32:57.528Z,6.18
2023-05-29T15:35:26.166Z,5.43
2023-05-29T15:37:54.211Z,6.10
2023-05-29T15:40:22.207Z,5.90
2023-05-29T15:42:50.399Z,6.03
2023-05-29T15:45:18.297Z,5.88
2023-05-29T15:47:46.192Z,6.20
2023-05-29T15:50:14.101Z,5.32
2023-05-29T15:52:53.504Z,5.32
2023-05-29T15:55:25.104Z,7.22
2023-05-29T15:57:53.295Z,10.50
2023-05-29T16:00:21.655Z,9.35
2023-05-29T16:02:51.616Z,7.95
2023-05-29T16:05:19.809Z,9.73
2023-05-29T16:07:49.413Z,10.07
2023-05-29T16:10:17.806Z,10.32
2023-05-29T16:12:49.888Z,9.65
2023-05-29T16:15:21.483Z,8.82
2023-05-29T16:17:49.462Z,8.75
2023-05-29T16:20:17.725Z,7.97
2023-05-29T16:22:46.055Z,7.88
2023-05-29T16:25:14.022Z,9.05
2023-05-29T16:27:41.974Z,9.63
2023-05-29T16:30:11.427Z,8.10
2023-05-29T16:32:39.413Z,8.18
2023-05-29T16:35:08.160Z,7.97
2023-05-29T16:37:36.535Z,8.48
2023-05-29T16:40:04.845Z,9.48
2023-05-29T16:42:34.990Z,8.52
2023-05-29T16:45:03.190Z,8.70
2023-05-29T16:47:32.315Z,9.20
2023-05-29T16:50:00.368Z,9.38
2023-05-29T16:52:28.352Z,8.18
2023-05-29T16:54:59.158Z,8.32
2023-05-29T16:57:27.606Z,8.43
2023-05-29T16:59:56.225Z,9.50
2023-05-29T17:02:24.206Z,9.05
2023-05-29T17:04:58.742Z,8.93
2023-05-29T17:07:27.149Z,9.90
2023-05-29T17:09:55.032Z,9.60
2023-05-29T17:12:23.582Z,9.35
2023-05-29T17:14:51.943Z,9.25
2023-05-29T17:17:21.971Z,9.75
2023-05-29T17:19:50.863Z,9.90
2023-05-29T17:22:18.831Z,9.70
2023-05-29T17:24:46.720Z,10.65
2023-05-29T17:27:20.747Z,10.32
2023-05-29T17:29:48.748Z,10.80
2023-05-29T17:32:16.952Z,11.38
2023-05-29T17:34:44.825Z,11.10
2023-05-29T17:37:12.764Z,10.98
2023-05-29T17:39:40.613Z,12.50
2023-05-29T17:42:09.168Z,11.60
2023-05-29T17:44:37.230Z,11.95
2023-05-29T17:47:06.081Z,11.95
2023-05-29T17:49:37.135Z,11.45
2023-05-29T17:52:08.156Z,12.50
2023-05-29T17:54:36.609Z,12.00
2023-05-29T17:57:04.703Z,12.77
2023-05-29T17:59:36.774Z,12.82
2023-05-29T18:02:05.043Z,12.93
2023-05-29T18:04:33.368Z,12.32
2023-05-29T18:07:01.666Z,12.65
2023-05-29T18:09:29.591Z,11.77
2023-05-29T18:12:04.661Z,11.80
2023-05-29T18:14:33.588Z,13.18
2023-05-29T18:17:01.492Z,12.82
2023-05-29T18:19:29.602Z,12.70
2023-05-29T18:21:57.527Z,13.07
2023-05-29T18:24:32.735Z,13.73
2023-05-29T18:27:00.728Z,14.88
2023-05-29T18:29:35.740Z,16.80
2023-05-29T18:32:04.221Z,17.38
2023-05-29T18:34:39.683Z,17.65
2023-05-29T18:37:07.680Z,17.65
2023-05-29T18:39:42.737Z,15.95
2023-05-29T18:42:10.764Z,16.73
2023-05-29T18:44:45.823Z,15.93
2023-05-29T18:47:16.957Z,15.80
2023-05-29T18:49:45.084Z,15.07
2023-05-29T18:52:13.079Z,14.55
2023-05-29T18:54:47.729Z,13.82
2023-05-29T18:57:15.824Z,14.10
2023-05-29T18:59:48.435Z,14.82
2023-05-29T19:02:16.581Z,15.25
2023-05-29T19:04:50.754Z,15.00
2023-05-29T19:07:18.944Z,14.93
2023-05-29T19:09:54.647Z,15.32
2023-05-29T19:12:23.162Z,16.13
2023-05-29T19:14:57.792Z,15.85
2023-05-29T19:17:29.654Z,15.63
2023-05-29T19:20:00.844Z,16.05
2023-05-29T19:22:29.030Z,16.77
2023-05-29T19:25:05.214Z,17.77
2023-05-29T19:27:33.372Z,16.52
2023-05-29T19:30:09.065Z,17.65
2023-05-29T19:32:39.943Z,17.23
2023-05-29T19:35:10.525Z,21.27
2023-05-29T19:37:38.700Z,21.33
2023-05-29T19:40:07.339Z,24.02
2023-05-29T19:42:42.055Z,24.60
2023-05-29T19:45:11.363Z,23.33
2023-05-29T19:47:45.738Z,22.65
2023-05-29T19:50:15.457Z,21.40
2023-05-29T19:52:52.943Z,21.90
2023-05-29T19:55:22.667Z,21.15
2023-05-29T19:57:59.417Z,20.98
2023-05-29T20:00:27.663Z,20.80
2023-05-29T20:03:03.030Z,19.85
2023-05-29T20:05:31.205Z,19.17
2023-05-29T20:08:05.651Z,18.75
2023-05-29T20:10:33.578Z,18.40
2023-05-29T20:13:08.347Z,17.27
2023-05-29T20:15:38.020Z,17.80
2023-05-29T20:18:12.609Z,16.98
2023-05-29T20:20:42.438Z,16.90
2023-05-29T20:23:10.837Z,17.52
2023-05-29T20:25:39.040Z,16.52
2023-05-29T20:28:13.661Z,15.95
2023-05-29T20:30:41.570Z,16.48
2023-05-29T20:33:15.668Z,15.93
2023-05-29T20:35:43.597Z,16.23
2023-05-29T20:38:17.804Z,16.13
2023-05-29T20:40:49.296Z,16.77
2023-05-29T20:43:22.233Z,17.35
2023-05-29T20:45:53.954Z,18.92
2023-05-29T20:48:22.613Z,18.45
2023-05-29T20:50:58.021Z,18.75
2023-05-29T20:53:26.276Z,17.90
2023-05-29T20:56:01.770Z,17.83
2023-05-29T20:58:29.703Z,18.08
2023-05-29T21:01:05.316Z,17.25
2023-05-29T21:03:33.375Z,17.58
2023-05-29T21:06:10.080Z,16.92
2023-05-29T21:08:39.989Z,17.50
2023-05-29T21:11:08.508Z,18.40
2023-05-29T21:13:41.079Z,17.70
2023-05-29T21:16:09.362Z,18.05
2023-05-29T21:18:37.254Z,17.30
2023-05-29T21:21:12.824Z,17.02
2023-05-29T21:23:40.665Z,16.15
2023-05-29T21:26:15.902Z,17.27
2023-05-29T21:28:43.858Z,17.08
2023-05-29T21:31:18.977Z,13.88
2023-05-29T21:33:47.787Z,14.35
2023-05-29T21:36:22.979Z,13.35
2023-05-29T21:38:53.197Z,13.70
2023-05-29T21:41:21.417Z,12.95
2023-05-29T21:43:49.577Z,15.40
2023-05-29T21:46:23.783Z,14.38
2023-05-29T21:48:51.827Z,14.05
2023-05-29T21:51:26.614Z,13.27
2023-05-29T21:53:57.238Z,13.13
2023-05-29T21:56:27.770Z,14.38
2023-05-29T21:58:56.088Z,15.68
2023-05-29T22:01:24.072Z,18.25
2023-05-29T22:03:58.813Z,21.08
2023-05-29T22:06:26.805Z,21.58
2023-05-29T22:09:01.627Z,31.23
2023-05-29T22:11:30.311Z,28.23
2023-05-29T22:14:05.582Z,22.60
2023-05-29T22:16:34.129Z,24.10
2023-05-29T22:19:08.641Z,18.40
2023-05-29T22:21:37.254Z,19.60
2023-05-29T22:24:12.763Z,14.65
2023-05-29T22:26:41.503Z,16.58
2023-05-29T22:29:15.649Z,14.95
2023-05-29T22:31:43.756Z,15.30
2023-05-29T22:34:18.636Z,15.18
2023-05-29T22:36:46.607Z,15.35
2023-05-29T22:39:21.623Z,14.88
2023-05-29T22:41:49.690Z,15.75
2023-05-29T22:44:25.115Z,15.32
2023-05-29T22:46:53.142Z,16.17
2023-05-29T22:49:27.752Z,16.80
2023-05-29T22:51:57.936Z,17.63
2023-05-29T22:54:25.837Z,16.50
2023-05-29T22:56:53.848Z,16.95
2023-05-29T22:59:28.483Z,16.70
2023-05-29T23:01:57.207Z,16.90
2023-05-29T23:04:31.584Z,16.15
2023-05-29T23:06:59.577Z,14.15
2023-05-29T23:09:34.687Z,15.07
2023-05-29T23:12:03.301Z,15.32
2023-05-29T23:14:38.312Z,15.45
2023-05-29T23:17:07.050Z,16.02
2023-05-29T23:19:41.578Z,15.73
2023-05-29T23:22:09.446Z,16.92
2023-05-29T23:24:43.564Z,16.27
2023-05-29T23:27:12.493Z,17.45
2023-05-29T23:29:46.529Z,17.83
2023-05-29T23:32:14.493Z,18.98
2023-05-29T23:34:48.510Z,20.00
2023-05-29T23:37:17.518Z,19.23
2023-05-29T23:39:51.552Z,18.98
2023-05-29T23:42:19.533Z,17.85
2023-05-29T23:44:54.337Z,17.48
2023-05-29T23:47:22.256Z,17.65
2023-05-29T23:49:56.590Z,18.02
2023-05-29T23:52:25.442Z,17.95
2023-05-29T23:54:59.600Z,17.25
2023-05-29T23:57:27.667Z,17.73
